sensor_id;sensor_type;location;lat;lon;timestamp;P1;durP1;ratioP1;P2;durP2;ratioP2
72354;SDS011;60314;55.040;73.076;2022-07-05T00:01:22;6.80;;;2.75;;
72354;SDS011;60314;55.040;73.076;2022-07-05T00:03:56;7.05;;;2.40;;
72354;SDS011;60314;55.040;73.076;2022-07-05T00:06:24;4.57;;;2.45;;
72354;SDS011;60314;55.040;73.076;2022-07-05T00:08:51;5.32;;;2.58;;
72354;SDS011;60314;55.040;73.076;2022-07-05T00:11:20;7.57;;;2.75;;
72354;SDS011;60314;55.040;73.076;2022-07-05T00:13:48;3.67;;;2.13;;
72354;SDS011;60314;55.040;73.076;2022-07-05T00:16:16;9.10;;;2.83;;
72354;SDS011;60314;55.040;73.076;2022-07-05T00:18:54;3.15;;;1.88;;
72354;SDS011;60314;55.040;73.076;2022-07-05T00:21:20;6.75;;;2.85;;
72354;SDS011;60314;55.040;73.076;2022-07-05T00:23:48;5.72;;;2.50;;
72354;SDS011;60314;55.040;73.076;2022-07-05T00:26:26;4.75;;;2.33;;
72354;SDS011;60314;55.040;73.076;2022-07-05T00:28:53;4.22;;;2.63;;
72354;SDS011;60314;55.040;73.076;2022-07-05T00:31:26;4.93;;;2.50;;
72354;SDS011;60314;55.040;73.076;2022-07-05T00:34:00;6.93;;;2.33;;
72354;SDS011;60314;55.040;73.076;2022-07-05T00:36:27;3.85;;;2.38;;
72354;SDS011;60314;55.040;73.076;2022-07-05T00:38:55;4.63;;;2.63;;
72354;SDS011;60314;55.040;73.076;2022-07-05T00:41:21;4.32;;;2.53;;
72354;SDS011;60314;55.040;73.076;2022-07-05T00:43:55;3.83;;;2.40;;
72354;SDS011;60314;55.040;73.076;2022-07-05T00:46:25;5.55;;;2.80;;
72354;SDS011;60314;55.040;73.076;2022-07-05T00:48:54;4.32;;;2.50;;
72354;SDS011;60314;55.040;73.076;2022-07-05T00:51:21;4.30;;;2.40;;
72354;SDS011;60314;55.040;73.076;2022-07-05T00:54:01;5.40;;;2.75;;
72354;SDS011;60314;55.040;73.076;2022-07-05T00:56:29;6.80;;;2.60;;
72354;SDS011;60314;55.040;73.076;2022-07-05T00:58:57;7.55;;;2.78;;
72354;SDS011;60314;55.040;73.076;2022-07-05T01:01:30;4.00;;;2.33;;
72354;SDS011;60314;55.040;73.076;2022-07-05T01:04:04;5.05;;;2.45;;
72354;SDS011;60314;55.040;73.076;2022-07-05T01:06:32;4.18;;;2.33;;
72354;SDS011;60314;55.040;73.076;2022-07-05T01:09:20;4.45;;;2.75;;
72354;SDS011;60314;55.040;73.076;2022-07-05T01:11:50;5.88;;;2.42;;
72354;SDS011;60314;55.040;73.076;2022-07-05T01:14:20;5.30;;;2.70;;
72354;SDS011;60314;55.040;73.076;2022-07-05T01:16:49;5.32;;;2.08;;
72354;SDS011;60314;55.040;73.076;2022-07-05T01:19:17;4.82;;;1.98;;
72354;SDS011;60314;55.040;73.076;2022-07-05T01:21:47;5.30;;;2.38;;
72354;SDS011;60314;55.040;73.076;2022-07-05T01:24:16;6.00;;;2.47;;
72354;SDS011;60314;55.040;73.076;2022-07-05T01:26:46;5.30;;;2.30;;
72354;SDS011;60314;55.040;73.076;2022-07-05T01:29:25;3.63;;;2.25;;
72354;SDS011;60314;55.040;73.076;2022-07-05T01:31:53;3.22;;;2.10;;
72354;SDS011;60314;55.040;73.076;2022-07-05T01:34:21;7.55;;;2.20;;
72354;SDS011;60314;55.040;73.076;2022-07-05T01:36:48;11.77;;;2.60;;
72354;SDS011;60314;55.040;73.076;2022-07-05T01:39:16;4.97;;;2.33;;
72354;SDS011;60314;55.040;73.076;2022-07-05T01:41:44;4.38;;;2.22;;
72354;SDS011;60314;55.040;73.076;2022-07-05T01:44:14;6.13;;;2.40;;
72354;SDS011;60314;55.040;73.076;2022-07-05T01:53:04;7.70;;;2.53;;
72354;SDS011;60314;55.040;73.076;2022-07-05T01:55:35;5.07;;;2.50;;
72354;SDS011;60314;55.040;73.076;2022-07-05T01:58:06;5.00;;;2.50;;
72354;SDS011;60314;55.040;73.076;2022-07-05T02:00:48;9.00;;;2.50;;
72354;SDS011;60314;55.040;73.076;2022-07-05T02:03:18;4.45;;;2.50;;
72354;SDS011;60314;55.040;73.076;2022-07-05T02:05:47;7.20;;;2.33;;
72354;SDS011;60314;55.040;73.076;2022-07-05T02:08:19;5.45;;;2.20;;
72354;SDS011;60314;55.040;73.076;2022-07-05T02:10:50;11.00;;;2.93;;
72354;SDS011;60314;55.040;73.076;2022-07-05T02:13:18;3.80;;;2.30;;
72354;SDS011;60314;55.040;73.076;2022-07-05T02:15:56;5.65;;;2.70;;
72354;SDS011;60314;55.040;73.076;2022-07-05T02:18:24;6.47;;;2.20;;
72354;SDS011;60314;55.040;73.076;2022-07-05T02:20:54;8.80;;;2.38;;
72354;SDS011;60314;55.040;73.076;2022-07-05T02:23:21;4.05;;;2.25;;
72354;SDS011;60314;55.040;73.076;2022-07-05T02:25:50;4.10;;;2.35;;
72354;SDS011;60314;55.040;73.076;2022-07-05T02:28:26;4.88;;;2.65;;
72354;SDS011;60314;55.040;73.076;2022-07-05T02:30:55;6.47;;;2.20;;
72354;SDS011;60314;55.040;73.076;2022-07-05T02:34:04;9.65;;;2.67;;
72354;SDS011;60314;55.040;73.076;2022-07-05T02:36:57;5.28;;;2.60;;
72354;SDS011;60314;55.040;73.076;2022-07-05T02:39:24;4.75;;;2.03;;
72354;SDS011;60314;55.040;73.076;2022-07-05T02:41:53;8.43;;;2.53;;
72354;SDS011;60314;55.040;73.076;2022-07-05T02:44:20;5.43;;;2.47;;
72354;SDS011;60314;55.040;73.076;2022-07-05T02:46:51;4.50;;;2.40;;
72354;SDS011;60314;55.040;73.076;2022-07-05T02:49:19;6.30;;;2.60;;
72354;SDS011;60314;55.040;73.076;2022-07-05T02:51:51;6.18;;;2.58;;
72354;SDS011;60314;55.040;73.076;2022-07-05T02:54:18;3.65;;;2.20;;
72354;SDS011;60314;55.040;73.076;2022-07-05T02:56:45;5.13;;;2.58;;
72354;SDS011;60314;55.040;73.076;2022-07-05T02:59:15;6.72;;;3.45;;
72354;SDS011;60314;55.040;73.076;2022-07-05T03:01:42;4.85;;;2.42;;
72354;SDS011;60314;55.040;73.076;2022-07-05T03:04:24;4.32;;;2.72;;
72354;SDS011;60314;55.040;73.076;2022-07-05T03:06:55;4.00;;;2.45;;
72354;SDS011;60314;55.040;73.076;2022-07-05T03:09:32;5.43;;;2.72;;
72354;SDS011;60314;55.040;73.076;2022-07-05T03:12:02;8.07;;;2.60;;
72354;SDS011;60314;55.040;73.076;2022-07-05T03:14:32;8.65;;;2.42;;
72354;SDS011;60314;55.040;73.076;2022-07-05T03:17:05;4.82;;;2.35;;
72354;SDS011;60314;55.040;73.076;2022-07-05T03:19:36;5.97;;;2.70;;
72354;SDS011;60314;55.040;73.076;2022-07-05T03:22:19;6.38;;;2.60;;
72354;SDS011;60314;55.040;73.076;2022-07-05T03:24:54;7.38;;;2.75;;
72354;SDS011;60314;55.040;73.076;2022-07-05T03:27:32;7.80;;;2.40;;
72354;SDS011;60314;55.040;73.076;2022-07-05T03:30:03;5.68;;;2.85;;
72354;SDS011;60314;55.040;73.076;2022-07-05T03:32:34;5.82;;;2.47;;
72354;SDS011;60314;55.040;73.076;2022-07-05T03:35:08;9.18;;;2.50;;
72354;SDS011;60314;55.040;73.076;2022-07-05T03:37:36;3.80;;;2.35;;
72354;SDS011;60314;55.040;73.076;2022-07-05T03:40:09;4.97;;;2.30;;
72354;SDS011;60314;55.040;73.076;2022-07-05T03:42:39;8.10;;;2.42;;
72354;SDS011;60314;55.040;73.076;2022-07-05T03:45:08;6.40;;;2.53;;
72354;SDS011;60314;55.040;73.076;2022-07-05T03:47:39;7.65;;;3.05;;
72354;SDS011;60314;55.040;73.076;2022-07-05T03:50:10;5.63;;;2.70;;
72354;SDS011;60314;55.040;73.076;2022-07-05T03:52:40;7.20;;;2.53;;
72354;SDS011;60314;55.040;73.076;2022-07-05T03:55:07;4.63;;;2.13;;
72354;SDS011;60314;55.040;73.076;2022-07-05T03:57:35;4.47;;;2.50;;
72354;SDS011;60314;55.040;73.076;2022-07-05T04:00:02;5.85;;;2.47;;
72354;SDS011;60314;55.040;73.076;2022-07-05T04:02:40;4.97;;;2.60;;
72354;SDS011;60314;55.040;73.076;2022-07-05T04:07:48;5.95;;;3.03;;
72354;SDS011;60314;55.040;73.076;2022-07-05T04:10:25;8.68;;;2.85;;
72354;SDS011;60314;55.040;73.076;2022-07-05T04:12:54;4.53;;;2.53;;
72354;SDS011;60314;55.040;73.076;2022-07-05T04:15:25;5.07;;;3.08;;
72354;SDS011;60314;55.040;73.076;2022-07-05T04:18:03;4.78;;;2.40;;
72354;SDS011;60314;55.040;73.076;2022-07-05T04:20:37;7.38;;;2.90;;
72354;SDS011;60314;55.040;73.076;2022-07-05T04:23:10;5.25;;;2.83;;
72354;SDS011;60314;55.040;73.076;2022-07-05T04:25:41;5.28;;;2.60;;
72354;SDS011;60314;55.040;73.076;2022-07-05T04:28:18;7.40;;;2.67;;
72354;SDS011;60314;55.040;73.076;2022-07-05T04:30:51;6.15;;;2.97;;
72354;SDS011;60314;55.040;73.076;2022-07-05T04:33:21;4.78;;;2.60;;
72354;SDS011;60314;55.040;73.076;2022-07-05T04:35:52;9.85;;;3.33;;
72354;SDS011;60314;55.040;73.076;2022-07-05T04:38:21;8.38;;;3.00;;
72354;SDS011;60314;55.040;73.076;2022-07-05T04:40:50;8.15;;;2.92;;
72354;SDS011;60314;55.040;73.076;2022-07-05T04:43:19;8.38;;;3.08;;
72354;SDS011;60314;55.040;73.076;2022-07-05T04:45:48;6.72;;;2.80;;
72354;SDS011;60314;55.040;73.076;2022-07-05T04:48:17;6.25;;;2.55;;
72354;SDS011;60314;55.040;73.076;2022-07-05T04:50:51;36.47;;;6.60;;
72354;SDS011;60314;55.040;73.076;2022-07-05T04:53:19;14.02;;;4.28;;
72354;SDS011;60314;55.040;73.076;2022-07-05T04:55:46;8.18;;;3.08;;
72354;SDS011;60314;55.040;73.076;2022-07-05T04:58:16;5.85;;;3.10;;
72354;SDS011;60314;55.040;73.076;2022-07-05T05:00:42;8.80;;;2.83;;
72354;SDS011;60314;55.040;73.076;2022-07-05T05:03:09;5.28;;;3.00;;
72354;SDS011;60314;55.040;73.076;2022-07-05T05:05:36;4.82;;;2.83;;
72354;SDS011;60314;55.040;73.076;2022-07-05T05:08:03;7.78;;;3.25;;
72354;SDS011;60314;55.040;73.076;2022-07-05T05:10:36;6.90;;;2.75;;
72354;SDS011;60314;55.040;73.076;2022-07-05T05:13:06;9.32;;;3.33;;
72354;SDS011;60314;55.040;73.076;2022-07-05T05:15:53;9.20;;;2.90;;
72354;SDS011;60314;55.040;73.076;2022-07-05T05:18:23;6.72;;;2.72;;
72354;SDS011;60314;55.040;73.076;2022-07-05T05:20:54;7.30;;;3.17;;
72354;SDS011;60314;55.040;73.076;2022-07-05T05:25:58;13.63;;;3.80;;
72354;SDS011;60314;55.040;73.076;2022-07-05T05:28:31;12.40;;;3.78;;
72354;SDS011;60314;55.040;73.076;2022-07-05T05:31:08;5.85;;;2.80;;
72354;SDS011;60314;55.040;73.076;2022-07-05T05:33:47;4.63;;;2.85;;
72354;SDS011;60314;55.040;73.076;2022-07-05T05:36:17;5.93;;;3.08;;
72354;SDS011;60314;55.040;73.076;2022-07-05T05:38:46;6.05;;;3.25;;
72354;SDS011;60314;55.040;73.076;2022-07-05T05:41:19;5.28;;;3.20;;
72354;SDS011;60314;55.040;73.076;2022-07-05T05:43:50;6.72;;;3.35;;
72354;SDS011;60314;55.040;73.076;2022-07-05T05:46:23;9.13;;;3.00;;
72354;SDS011;60314;55.040;73.076;2022-07-05T05:48:49;7.22;;;3.00;;
72354;SDS011;60314;55.040;73.076;2022-07-05T05:51:23;8.25;;;2.80;;
72354;SDS011;60314;55.040;73.076;2022-07-05T05:53:59;8.13;;;2.78;;
72354;SDS011;60314;55.040;73.076;2022-07-05T05:56:36;6.13;;;2.72;;
72354;SDS011;60314;55.040;73.076;2022-07-05T06:01:58;7.40;;;2.70;;
72354;SDS011;60314;55.040;73.076;2022-07-05T06:04:38;8.38;;;2.95;;
72354;SDS011;60314;55.040;73.076;2022-07-05T06:07:09;10.40;;;2.67;;
72354;SDS011;60314;55.040;73.076;2022-07-05T06:09:37;7.75;;;2.90;;
72354;SDS011;60314;55.040;73.076;2022-07-05T06:12:06;13.32;;;3.22;;
72354;SDS011;60314;55.040;73.076;2022-07-05T06:14:34;9.00;;;2.80;;
72354;SDS011;60314;55.040;73.076;2022-07-05T06:17:04;9.98;;;2.67;;
72354;SDS011;60314;55.040;73.076;2022-07-05T06:19:33;8.50;;;2.92;;
72354;SDS011;60314;55.040;73.076;2022-07-05T06:22:06;6.25;;;2.80;;
72354;SDS011;60314;55.040;73.076;2022-07-05T06:27:10;6.47;;;3.20;;
72354;SDS011;60314;55.040;73.076;2022-07-05T06:29:44;7.05;;;2.47;;
72354;SDS011;60314;55.040;73.076;2022-07-05T06:32:24;7.22;;;2.90;;
72354;SDS011;60314;55.040;73.076;2022-07-05T06:34:58;10.80;;;3.00;;
72354;SDS011;60314;55.040;73.076;2022-07-05T06:37:43;4.60;;;2.47;;
72354;SDS011;60314;55.040;73.076;2022-07-05T06:40:21;4.85;;;2.85;;
72354;SDS011;60314;55.040;73.076;2022-07-05T06:43:10;5.40;;;2.88;;
72354;SDS011;60314;55.040;73.076;2022-07-05T07:11:44;4.20;;;2.45;;
72354;SDS011;60314;55.040;73.076;2022-07-05T07:17:34;6.40;;;2.80;;
72354;SDS011;60314;55.040;73.076;2022-07-05T07:28:34;6.13;;;2.92;;
72354;SDS011;60314;55.040;73.076;2022-07-05T07:31:08;7.90;;;2.78;;
72354;SDS011;60314;55.040;73.076;2022-07-05T07:33:41;6.07;;;2.70;;
72354;SDS011;60314;55.040;73.076;2022-07-05T07:36:12;10.55;;;3.15;;
72354;SDS011;60314;55.040;73.076;2022-07-05T07:38:44;5.88;;;2.58;;
72354;SDS011;60314;55.040;73.076;2022-07-05T07:43:47;8.32;;;3.00;;
72354;SDS011;60314;55.040;73.076;2022-07-05T07:46:19;7.05;;;3.00;;
72354;SDS011;60314;55.040;73.076;2022-07-05T07:48:58;6.80;;;3.03;;
72354;SDS011;60314;55.040;73.076;2022-07-05T07:51:25;8.88;;;2.88;;
72354;SDS011;60314;55.040;73.076;2022-07-05T07:54:02;4.88;;;2.92;;
72354;SDS011;60314;55.040;73.076;2022-07-05T07:56:36;6.15;;;3.25;;
72354;SDS011;60314;55.040;73.076;2022-07-05T07:59:10;10.15;;;2.92;;
72354;SDS011;60314;55.040;73.076;2022-07-05T08:02:01;7.55;;;2.97;;
72354;SDS011;60314;55.040;73.076;2022-07-05T08:04:36;8.73;;;3.53;;
72354;SDS011;60314;55.040;73.076;2022-07-05T08:07:04;9.60;;;2.85;;
72354;SDS011;60314;55.040;73.076;2022-07-05T08:09:32;6.78;;;3.35;;
72354;SDS011;60314;55.040;73.076;2022-07-05T08:12:00;5.70;;;3.17;;
72354;SDS011;60314;55.040;73.076;2022-07-05T08:14:28;7.57;;;3.40;;
72354;SDS011;60314;55.040;73.076;2022-07-05T08:16:55;7.20;;;3.30;;
72354;SDS011;60314;55.040;73.076;2022-07-05T08:19:23;5.72;;;2.45;;
72354;SDS011;60314;55.040;73.076;2022-07-05T08:22:13;7.85;;;3.13;;
72354;SDS011;60314;55.040;73.076;2022-07-05T08:24:40;5.63;;;2.97;;
72354;SDS011;60314;55.040;73.076;2022-07-05T08:27:07;7.15;;;3.63;;
72354;SDS011;60314;55.040;73.076;2022-07-05T08:29:34;6.45;;;2.97;;
72354;SDS011;60314;55.040;73.076;2022-07-05T08:32:03;5.65;;;2.70;;
72354;SDS011;60314;55.040;73.076;2022-07-05T08:34:31;5.75;;;2.80;;
72354;SDS011;60314;55.040;73.076;2022-07-05T08:37:09;6.47;;;3.10;;
72354;SDS011;60314;55.040;73.076;2022-07-05T08:39:36;6.18;;;2.92;;
72354;SDS011;60314;55.040;73.076;2022-07-05T08:42:03;6.88;;;3.30;;
72354;SDS011;60314;55.040;73.076;2022-07-05T08:44:36;6.28;;;2.97;;
72354;SDS011;60314;55.040;73.076;2022-07-05T08:47:14;9.10;;;3.33;;
72354;SDS011;60314;55.040;73.076;2022-07-05T08:49:43;8.07;;;3.17;;
72354;SDS011;60314;55.040;73.076;2022-07-05T08:52:12;7.40;;;2.47;;
72354;SDS011;60314;55.040;73.076;2022-07-05T08:55:26;4.82;;;2.80;;
72354;SDS011;60314;55.040;73.076;2022-07-05T08:57:53;5.60;;;3.00;;
72354;SDS011;60314;55.040;73.076;2022-07-05T09:00:20;5.65;;;2.88;;
72354;SDS011;60314;55.040;73.076;2022-07-05T09:02:47;6.10;;;2.60;;
72354;SDS011;60314;55.040;73.076;2022-07-05T09:05:21;5.68;;;3.05;;
72354;SDS011;60314;55.040;73.076;2022-07-05T09:07:59;5.38;;;3.08;;
72354;SDS011;60314;55.040;73.076;2022-07-05T09:10:31;8.23;;;4.00;;
72354;SDS011;60314;55.040;73.076;2022-07-05T09:12:58;5.85;;;3.63;;
72354;SDS011;60314;55.040;73.076;2022-07-05T09:15:32;5.25;;;3.20;;
72354;SDS011;60314;55.040;73.076;2022-07-05T09:18:00;7.57;;;3.03;;
72354;SDS011;60314;55.040;73.076;2022-07-05T09:20:27;5.25;;;2.80;;
72354;SDS011;60314;55.040;73.076;2022-07-05T09:22:55;9.48;;;3.55;;
72354;SDS011;60314;55.040;73.076;2022-07-05T09:25:25;10.60;;;3.17;;
72354;SDS011;60314;55.040;73.076;2022-07-05T09:28:00;8.07;;;3.25;;
72354;SDS011;60314;55.040;73.076;2022-07-05T09:33:19;5.68;;;2.70;;
72354;SDS011;60314;55.040;73.076;2022-07-05T09:35:52;7.30;;;2.78;;
72354;SDS011;60314;55.040;73.076;2022-07-05T09:38:22;6.60;;;2.70;;
72354;SDS011;60314;55.040;73.076;2022-07-05T09:40:55;6.60;;;2.50;;
72354;SDS011;60314;55.040;73.076;2022-07-05T09:43:24;5.55;;;2.80;;
72354;SDS011;60314;55.040;73.076;2022-07-05T09:46:01;6.13;;;3.25;;
72354;SDS011;60314;55.040;73.076;2022-07-05T09:48:31;5.07;;;3.10;;
72354;SDS011;60314;55.040;73.076;2022-07-05T09:51:08;6.43;;;3.00;;
72354;SDS011;60314;55.040;73.076;2022-07-05T09:53:47;7.00;;;2.70;;
72354;SDS011;60314;55.040;73.076;2022-07-05T09:56:25;6.15;;;3.08;;
72354;SDS011;60314;55.040;73.076;2022-07-05T09:59:11;5.53;;;2.72;;
72354;SDS011;60314;55.040;73.076;2022-07-05T10:01:40;5.70;;;2.88;;
72354;SDS011;60314;55.040;73.076;2022-07-05T10:04:08;6.05;;;3.38;;
72354;SDS011;60314;55.040;73.076;2022-07-05T10:06:37;7.63;;;3.42;;
72354;SDS011;60314;55.040;73.076;2022-07-05T10:09:07;8.48;;;4.80;;
72354;SDS011;60314;55.040;73.076;2022-07-05T10:11:40;5.25;;;3.67;;
72354;SDS011;60314;55.040;73.076;2022-07-05T10:14:19;6.95;;;3.65;;
72354;SDS011;60314;55.040;73.076;2022-07-05T10:17:00;6.70;;;2.97;;
72354;SDS011;60314;55.040;73.076;2022-07-05T10:19:40;7.07;;;3.20;;
72354;SDS011;60314;55.040;73.076;2022-07-05T10:22:17;5.85;;;3.55;;
72354;SDS011;60314;55.040;73.076;2022-07-05T10:24:48;6.82;;;3.75;;
72354;SDS011;60314;55.040;73.076;2022-07-05T10:27:18;11.27;;;4.30;;
72354;SDS011;60314;55.040;73.076;2022-07-05T10:29:47;9.45;;;4.20;;
72354;SDS011;60314;55.040;73.076;2022-07-05T10:32:22;8.57;;;4.13;;
72354;SDS011;60314;55.040;73.076;2022-07-05T10:34:51;7.13;;;3.92;;
72354;SDS011;60314;55.040;73.076;2022-07-05T10:37:19;8.63;;;4.28;;
72354;SDS011;60314;55.040;73.076;2022-07-05T10:39:48;9.43;;;4.50;;
72354;SDS011;60314;55.040;73.076;2022-07-05T10:42:15;6.88;;;4.43;;
72354;SDS011;60314;55.040;73.076;2022-07-05T10:44:43;7.63;;;4.57;;
72354;SDS011;60314;55.040;73.076;2022-07-05T10:47:10;6.78;;;3.97;;
72354;SDS011;60314;55.040;73.076;2022-07-05T10:49:37;7.38;;;4.63;;
72354;SDS011;60314;55.040;73.076;2022-07-05T11:03:42;7.40;;;4.60;;
72354;SDS011;60314;55.040;73.076;2022-07-05T11:06:20;6.82;;;4.55;;
72354;SDS011;60314;55.040;73.076;2022-07-05T11:11:30;6.00;;;4.35;;
72354;SDS011;60314;55.040;73.076;2022-07-05T11:13:59;6.38;;;4.05;;
72354;SDS011;60314;55.040;73.076;2022-07-05T11:16:28;7.82;;;4.32;;
72354;SDS011;60314;55.040;73.076;2022-07-05T11:19:06;12.48;;;4.82;;
72354;SDS011;60314;55.040;73.076;2022-07-05T11:22:00;6.85;;;4.13;;
72354;SDS011;60314;55.040;73.076;2022-07-05T11:24:31;6.40;;;4.30;;
72354;SDS011;60314;55.040;73.076;2022-07-05T11:26:59;7.95;;;4.65;;
72354;SDS011;60314;55.040;73.076;2022-07-05T11:35:15;8.95;;;4.63;;
72354;SDS011;60314;55.040;73.076;2022-07-05T11:38:01;10.35;;;4.53;;
72354;SDS011;60314;55.040;73.076;2022-07-05T11:40:33;7.78;;;4.88;;
72354;SDS011;60314;55.040;73.076;2022-07-05T11:43:02;6.63;;;4.13;;
72354;SDS011;60314;55.040;73.076;2022-07-05T11:45:30;7.47;;;4.32;;
72354;SDS011;60314;55.040;73.076;2022-07-05T11:47:57;5.95;;;4.53;;
72354;SDS011;60314;55.040;73.076;2022-07-05T11:50:28;10.43;;;4.78;;
72354;SDS011;60314;55.040;73.076;2022-07-05T11:52:59;8.98;;;4.93;;
72354;SDS011;60314;55.040;73.076;2022-07-05T11:55:27;8.60;;;4.57;;
72354;SDS011;60314;55.040;73.076;2022-07-05T11:58:00;8.20;;;4.80;;
72354;SDS011;60314;55.040;73.076;2022-07-05T12:00:33;7.03;;;4.60;;
72354;SDS011;60314;55.040;73.076;2022-07-05T12:03:13;8.10;;;4.60;;
72354;SDS011;60314;55.040;73.076;2022-07-05T12:05:47;6.57;;;4.70;;
72354;SDS011;60314;55.040;73.076;2022-07-05T12:08:22;6.93;;;4.93;;
72354;SDS011;60314;55.040;73.076;2022-07-05T12:10:49;10.93;;;5.20;;
72354;SDS011;60314;55.040;73.076;2022-07-05T12:13:54;8.50;;;4.93;;
72354;SDS011;60314;55.040;73.076;2022-07-05T12:16:25;8.18;;;5.20;;
72354;SDS011;60314;55.040;73.076;2022-07-05T12:18:53;14.13;;;5.13;;
72354;SDS011;60314;55.040;73.076;2022-07-05T12:21:26;9.00;;;5.15;;
72354;SDS011;60314;55.040;73.076;2022-07-05T12:23:57;7.40;;;4.80;;
72354;SDS011;60314;55.040;73.076;2022-07-05T12:26:24;8.05;;;4.68;;
72354;SDS011;60314;55.040;73.076;2022-07-05T12:28:51;8.38;;;4.72;;
72354;SDS011;60314;55.040;73.076;2022-07-05T12:31:22;7.68;;;5.10;;
72354;SDS011;60314;55.040;73.076;2022-07-05T12:33:50;6.20;;;4.97;;
72354;SDS011;60314;55.040;73.076;2022-07-05T12:36:18;6.57;;;4.90;;
72354;SDS011;60314;55.040;73.076;2022-07-05T12:38:46;11.50;;;4.60;;
72354;SDS011;60314;55.040;73.076;2022-07-05T12:41:20;7.80;;;4.60;;
72354;SDS011;60314;55.040;73.076;2022-07-05T12:43:53;5.88;;;4.30;;
72354;SDS011;60314;55.040;73.076;2022-07-05T12:46:35;8.05;;;4.30;;
72354;SDS011;60314;55.040;73.076;2022-07-05T12:49:06;6.70;;;4.47;;
72354;SDS011;60314;55.040;73.076;2022-07-05T12:51:33;6.80;;;4.50;;
72354;SDS011;60314;55.040;73.076;2022-07-05T12:54:02;9.10;;;4.60;;
72354;SDS011;60314;55.040;73.076;2022-07-05T12:57:00;7.35;;;4.47;;
72354;SDS011;60314;55.040;73.076;2022-07-05T12:59:56;12.35;;;4.15;;
72354;SDS011;60314;55.040;73.076;2022-07-05T13:05:20;6.38;;;4.30;;
72354;SDS011;60314;55.040;73.076;2022-07-05T13:07:48;7.32;;;4.30;;
72354;SDS011;60314;55.040;73.076;2022-07-05T13:10:21;6.18;;;4.40;;
72354;SDS011;60314;55.040;73.076;2022-07-05T13:15:23;6.38;;;4.25;;
72354;SDS011;60314;55.040;73.076;2022-07-05T13:17:50;8.23;;;4.30;;
72354;SDS011;60314;55.040;73.076;2022-07-05T13:20:17;6.60;;;3.92;;
72354;SDS011;60314;55.040;73.076;2022-07-05T13:22:46;7.90;;;4.32;;
72354;SDS011;60314;55.040;73.076;2022-07-05T13:25:18;9.00;;;3.85;;
72354;SDS011;60314;55.040;73.076;2022-07-05T13:27:44;7.05;;;3.78;;
72354;SDS011;60314;55.040;73.076;2022-07-05T13:30:11;9.00;;;4.10;;
72354;SDS011;60314;55.040;73.076;2022-07-05T13:32:38;5.28;;;3.78;;
72354;SDS011;60314;55.040;73.076;2022-07-05T13:35:04;8.00;;;4.53;;
72354;SDS011;60314;55.040;73.076;2022-07-05T13:37:31;6.57;;;3.88;;
72354;SDS011;60314;55.040;73.076;2022-07-05T13:39:58;6.60;;;4.20;;
72354;SDS011;60314;55.040;73.076;2022-07-05T13:42:35;5.28;;;3.70;;
72354;SDS011;60314;55.040;73.076;2022-07-05T13:45:01;4.60;;;3.10;;
72354;SDS011;60314;55.040;73.076;2022-07-05T13:47:28;6.80;;;3.78;;
72354;SDS011;60314;55.040;73.076;2022-07-05T13:49:54;5.63;;;3.45;;
72354;SDS011;60314;55.040;73.076;2022-07-05T13:52:45;6.97;;;3.70;;
72354;SDS011;60314;55.040;73.076;2022-07-05T13:55:17;4.53;;;3.25;;
72354;SDS011;60314;55.040;73.076;2022-07-05T13:57:44;6.47;;;3.58;;
72354;SDS011;60314;55.040;73.076;2022-07-05T14:00:22;5.53;;;3.10;;
72354;SDS011;60314;55.040;73.076;2022-07-05T14:05:20;5.95;;;3.15;;
72354;SDS011;60314;55.040;73.076;2022-07-05T14:07:56;6.18;;;2.78;;
72354;SDS011;60314;55.040;73.076;2022-07-05T14:10:23;7.25;;;3.33;;
72354;SDS011;60314;55.040;73.076;2022-07-05T14:12:49;6.43;;;3.00;;
72354;SDS011;60314;55.040;73.076;2022-07-05T14:15:25;4.60;;;3.25;;
72354;SDS011;60314;55.040;73.076;2022-07-05T14:17:52;4.63;;;3.28;;
72354;SDS011;60314;55.040;73.076;2022-07-05T14:20:19;3.97;;;2.80;;
72354;SDS011;60314;55.040;73.076;2022-07-05T14:22:45;5.45;;;2.90;;
72354;SDS011;60314;55.040;73.076;2022-07-05T14:25:12;4.90;;;2.80;;
72354;SDS011;60314;55.040;73.076;2022-07-05T14:27:39;6.32;;;3.13;;
72354;SDS011;60314;55.040;73.076;2022-07-05T14:30:05;4.32;;;3.00;;
72354;SDS011;60314;55.040;73.076;2022-07-05T14:32:33;5.13;;;3.28;;
72354;SDS011;60314;55.040;73.076;2022-07-05T14:35:05;4.60;;;2.95;;
72354;SDS011;60314;55.040;73.076;2022-07-05T14:37:32;5.07;;;3.13;;
72354;SDS011;60314;55.040;73.076;2022-07-05T14:39:58;4.78;;;2.80;;
72354;SDS011;60314;55.040;73.076;2022-07-05T14:42:25;5.95;;;2.70;;
72354;SDS011;60314;55.040;73.076;2022-07-05T14:45:02;4.53;;;2.75;;
72354;SDS011;60314;55.040;73.076;2022-07-05T14:47:38;6.30;;;2.90;;
72354;SDS011;60314;55.040;73.076;2022-07-05T14:50:05;5.43;;;2.60;;
72354;SDS011;60314;55.040;73.076;2022-07-05T14:52:37;4.65;;;2.90;;
72354;SDS011;60314;55.040;73.076;2022-07-05T14:55:09;3.85;;;2.70;;
72354;SDS011;60314;55.040;73.076;2022-07-05T14:57:36;7.28;;;2.92;;
72354;SDS011;60314;55.040;73.076;2022-07-05T15:00:07;5.55;;;2.95;;
72354;SDS011;60314;55.040;73.076;2022-07-05T15:02:35;5.38;;;2.78;;
72354;SDS011;60314;55.040;73.076;2022-07-05T15:05:03;4.68;;;2.38;;
72354;SDS011;60314;55.040;73.076;2022-07-05T15:07:30;3.45;;;2.35;;
72354;SDS011;60314;55.040;73.076;2022-07-05T15:10:08;7.63;;;2.50;;
72354;SDS011;60314;55.040;73.076;2022-07-05T15:12:35;3.80;;;2.20;;
72354;SDS011;60314;55.040;73.076;2022-07-05T15:15:02;4.60;;;2.35;;
72354;SDS011;60314;55.040;73.076;2022-07-05T15:17:29;4.07;;;2.78;;
72354;SDS011;60314;55.040;73.076;2022-07-05T15:19:56;4.70;;;2.90;;
72354;SDS011;60314;55.040;73.076;2022-07-05T15:22:22;4.70;;;3.08;;
72354;SDS011;60314;55.040;73.076;2022-07-05T15:24:52;5.05;;;2.70;;
72354;SDS011;60314;55.040;73.076;2022-07-05T15:27:19;5.05;;;2.83;;
72354;SDS011;60314;55.040;73.076;2022-07-05T15:29:46;4.95;;;2.53;;
72354;SDS011;60314;55.040;73.076;2022-07-05T15:32:13;5.75;;;2.97;;
72354;SDS011;60314;55.040;73.076;2022-07-05T15:34:40;4.57;;;3.00;;
72354;SDS011;60314;55.040;73.076;2022-07-05T15:37:06;4.88;;;3.20;;
72354;SDS011;60314;55.040;73.076;2022-07-05T15:39:43;4.97;;;3.13;;
72354;SDS011;60314;55.040;73.076;2022-07-05T15:42:10;7.00;;;2.97;;
72354;SDS011;60314;55.040;73.076;2022-07-05T15:47:08;5.28;;;2.78;;
72354;SDS011;60314;55.040;73.076;2022-07-05T15:49:36;4.60;;;2.72;;
72354;SDS011;60314;55.040;73.076;2022-07-05T15:52:08;3.70;;;2.55;;
72354;SDS011;60314;55.040;73.076;2022-07-05T15:54:35;5.47;;;2.70;;
72354;SDS011;60314;55.040;73.076;2022-07-05T15:57:03;3.85;;;2.45;;
72354;SDS011;60314;55.040;73.076;2022-07-05T15:59:30;4.25;;;2.63;;
72354;SDS011;60314;55.040;73.076;2022-07-05T16:02:04;4.20;;;2.78;;
72354;SDS011;60314;55.040;73.076;2022-07-05T16:04:33;4.18;;;2.33;;
72354;SDS011;60314;55.040;73.076;2022-07-05T16:06:59;3.95;;;2.75;;
72354;SDS011;60314;55.040;73.076;2022-07-05T16:09:28;4.50;;;3.13;;
72354;SDS011;60314;55.040;73.076;2022-07-05T16:12:14;5.38;;;2.90;;
72354;SDS011;60314;55.040;73.076;2022-07-05T16:14:42;4.95;;;2.95;;
72354;SDS011;60314;55.040;73.076;2022-07-05T16:17:08;4.35;;;2.83;;
72354;SDS011;60314;55.040;73.076;2022-07-05T16:19:35;4.68;;;2.75;;
72354;SDS011;60314;55.040;73.076;2022-07-05T16:22:02;3.85;;;2.67;;
72354;SDS011;60314;55.040;73.076;2022-07-05T16:24:28;4.18;;;2.80;;
72354;SDS011;60314;55.040;73.076;2022-07-05T16:26:55;3.58;;;2.53;;
72354;SDS011;60314;55.040;73.076;2022-07-05T16:29:21;3.90;;;2.85;;